createdAt,value
2023-03-25T00:01:21.291Z,81.07
2023-03-25T00:03:54.244Z,50.35
2023-03-25T00:06:23.205Z,39.72
2023-03-25T00:08:52.003Z,37.58
2023-03-25T00:11:21.260Z,36.60
2023-03-25T00:13:50.671Z,41.05
2023-03-25T00:16:20.049Z,38.20
2023-03-25T00:18:52.275Z,38.40
2023-03-25T00:21:21.845Z,35.95
2023-03-25T00:23:50.689Z,40.53
2023-03-25T00:26:19.871Z,32.33
2023-03-25T00:28:48.656Z,43.20
2023-03-25T00:31:17.759Z,37.28
2023-03-25T00:33:46.652Z,43.25
2023-03-25T00:36:15.693Z,39.35
2023-03-25T00:38:46.560Z,46.97
2023-03-25T00:41:26.414Z,41.10
2023-03-25T00:43:59.945Z,37.28
2023-03-25T00:46:33.620Z,34.72
2023-03-25T00:49:03.080Z,34.80
2023-03-25T00:51:34.816Z,38.33
2023-03-25T00:54:23.146Z,39.85
2023-03-25T00:56:54.276Z,36.33
2023-03-25T00:59:23.575Z,35.00
2023-03-25T01:01:57.880Z,36.25
2023-03-25T01:04:31.324Z,36.13
2023-03-25T01:07:04.054Z,34.33
2023-03-25T01:09:37.755Z,39.50
2023-03-25T01:12:11.214Z,43.95
2023-03-25T01:14:47.076Z,36.80
2023-03-25T01:17:18.637Z,32.95
2023-03-25T01:19:55.451Z,36.08
2023-03-25T01:22:29.406Z,35.55
2023-03-25T01:25:02.804Z,33.22
2023-03-25T01:27:35.386Z,36.70
2023-03-25T01:30:10.058Z,31.33
2023-03-25T01:32:43.490Z,31.15
2023-03-25T01:35:17.642Z,31.58
2023-03-25T01:37:57.535Z,29.13
2023-03-25T01:40:32.468Z,33.72
2023-03-25T01:43:06.524Z,50.33
2023-03-25T01:45:40.835Z,89.63
2023-03-25T01:48:19.016Z,99.30
2023-03-25T01:51:02.970Z,143.90
2023-03-25T01:53:37.438Z,151.93
2023-03-25T01:56:12.126Z,133.30
2023-03-25T01:58:47.771Z,95.93
2023-03-25T02:01:25.730Z,100.45
2023-03-25T02:04:05.968Z,78.65
2023-03-25T02:06:59.819Z,77.93
2023-03-25T02:09:35.104Z,51.25
2023-03-25T02:12:12.303Z,47.78
2023-03-25T02:14:45.265Z,46.75
2023-03-25T02:17:27.731Z,36.83
2023-03-25T02:20:36.305Z,35.28
2023-03-25T02:23:30.940Z,36.53
2023-03-25T02:26:18.674Z,34.78
2023-03-25T02:28:55.257Z,47.72
2023-03-25T02:32:14.404Z,94.55
2023-03-25T02:35:04.683Z,84.57
2023-03-25T02:38:01.103Z,74.43
2023-03-25T02:40:50.422Z,77.93
2023-03-25T02:43:42.495Z,73.70
2023-03-25T02:46:16.876Z,65.40
2023-03-25T02:49:09.628Z,66.20
2023-03-25T02:52:04.532Z,62.65
2023-03-25T02:54:37.947Z,62.75
2023-03-25T02:57:09.311Z,51.90
2023-03-25T02:59:41.509Z,66.45
2023-03-25T03:02:12.450Z,68.38
2023-03-25T03:04:53.624Z,73.78
2023-03-25T03:07:33.255Z,68.80
2023-03-25T03:10:24.441Z,61.67
2023-03-25T03:12:58.830Z,72.20
2023-03-25T03:15:42.546Z,74.13
2023-03-25T03:18:43.174Z,82.03
2023-03-25T03:21:24.197Z,65.63
2023-03-25T03:24:09.013Z,69.35
2023-03-25T03:26:59.970Z,64.28
2023-03-25T03:29:47.657Z,71.22
2023-03-25T03:32:44.409Z,50.45
2023-03-25T03:35:20.214Z,29.55
2023-03-25T03:37:59.256Z,29.08
2023-03-25T03:40:31.549Z,21.23
2023-03-25T03:43:13.445Z,22.88
2023-03-25T03:45:47.518Z,25.83
2023-03-25T03:49:27.494Z,24.90
2023-03-25T03:52:08.115Z,25.25
2023-03-25T03:54:54.601Z,28.23
2023-03-25T03:57:33.631Z,21.27
2023-03-25T04:00:19.280Z,21.73
2023-03-25T04:03:10.090Z,30.15
2023-03-25T04:05:40.729Z,23.52
2023-03-25T04:08:22.294Z,29.27
2023-03-25T04:11:00.112Z,24.45
2023-03-25T04:13:37.611Z,19.42
2023-03-25T04:16:08.328Z,19.98
2023-03-25T04:18:37.586Z,24.88
2023-03-25T04:21:06.690Z,17.95
2023-03-25T04:23:35.815Z,19.60
2023-03-25T04:26:04.874Z,16.60
2023-03-25T04:28:33.932Z,18.23
2023-03-25T04:31:06.397Z,12.60
2023-03-25T04:33:36.899Z,10.02
2023-03-25T04:36:07.723Z,7.93
2023-03-25T04:38:38.623Z,7.95
2023-03-25T04:41:09.458Z,13.02
2023-03-25T04:43:40.188Z,9.63
2023-03-25T04:46:15.094Z,10.85
2023-03-25T04:48:46.118Z,10.93
2023-03-25T04:51:17.010Z,10.10
2023-03-25T04:53:45.943Z,13.07
2023-03-25T04:56:17.845Z,13.13
2023-03-25T04:58:47.675Z,13.90
2023-03-25T05:01:31.514Z,13.95
2023-03-25T05:04:06.513Z,15.82
2023-03-25T05:06:39.406Z,10.52
2023-03-25T05:09:12.434Z,9.27
2023-03-25T05:11:42.818Z,8.70
2023-03-25T05:14:13.003Z,10.70
2023-03-25T05:16:42.508Z,5.78
2023-03-25T05:19:11.533Z,6.25
2023-03-25T05:21:42.143Z,11.65
2023-03-25T05:24:13.033Z,7.00
2023-03-25T05:26:43.561Z,6.10
2023-03-25T05:29:15.924Z,4.82
2023-03-25T05:31:47.027Z,3.92
2023-03-25T05:34:17.967Z,9.52
2023-03-25T05:36:47.234Z,6.03
2023-03-25T05:39:16.210Z,8.30
2023-03-25T05:41:46.723Z,9.55
2023-03-25T05:44:15.812Z,8.13
2023-03-25T05:46:45.045Z,6.50
2023-03-25T05:49:14.216Z,8.55
2023-03-25T05:51:43.031Z,4.13
2023-03-25T05:54:12.251Z,3.92
2023-03-25T05:56:42.412Z,3.13
2023-03-25T05:59:11.414Z,9.45
2023-03-25T06:01:40.285Z,7.93
2023-03-25T06:04:10.993Z,5.70
2023-03-25T06:06:40.738Z,5.18
2023-03-25T06:09:09.815Z,11.68
2023-03-25T06:11:41.971Z,5.50
2023-03-25T06:14:11.336Z,4.32
2023-03-25T06:16:40.483Z,6.90
2023-03-25T06:19:10.527Z,7.50
2023-03-25T06:21:39.803Z,6.40
2023-03-25T06:24:09.303Z,4.72
2023-03-25T06:26:38.149Z,4.55
2023-03-25T06:29:07.112Z,6.30
2023-03-25T06:31:35.974Z,4.75
2023-03-25T06:34:05.146Z,7.95
2023-03-25T06:36:35.649Z,5.30
2023-03-25T06:39:06.351Z,10.10
2023-03-25T06:41:37.115Z,7.68
2023-03-25T06:44:26.446Z,9.10
2023-03-25T06:47:13.653Z,10.10
2023-03-25T06:49:47.694Z,4.68
2023-03-25T06:52:28.843Z,5.43
2023-03-25T06:54:58.059Z,5.75
2023-03-25T06:57:26.939Z,15.23
2023-03-25T06:59:55.893Z,6.65
2023-03-25T07:02:24.717Z,6.28
2023-03-25T07:04:53.734Z,3.53
2023-03-25T07:07:22.505Z,4.47
2023-03-25T07:09:56.991Z,10.13
2023-03-25T07:12:26.001Z,6.85
2023-03-25T07:14:59.404Z,7.50
2023-03-25T07:17:30.089Z,7.07
2023-03-25T07:20:00.009Z,6.88
2023-03-25T07:22:28.960Z,6.05
2023-03-25T07:24:59.413Z,4.55
2023-03-25T07:27:29.190Z,6.47
2023-03-25T07:30:07.972Z,11.00
2023-03-25T07:32:38.157Z,6.35
2023-03-25T07:35:10.261Z,5.35
2023-03-25T07:37:39.381Z,6.47
2023-03-25T07:40:08.850Z,11.30
2023-03-25T07:42:39.487Z,8.73
2023-03-25T07:45:18.503Z,7.65
2023-03-25T07:47:51.213Z,10.23
2023-03-25T07:50:24.425Z,13.65
2023-03-25T07:52:54.710Z,10.15
2023-03-25T07:55:23.552Z,10.60
2023-03-25T07:57:52.953Z,11.45
2023-03-25T08:00:22.179Z,9.90
2023-03-25T08:02:51.582Z,9.55
2023-03-25T08:05:30.012Z,10.75
2023-03-25T08:08:02.099Z,11.32
2023-03-25T08:10:31.407Z,15.52
2023-03-25T08:13:00.581Z,14.32
2023-03-25T08:16:07.857Z,12.40
2023-03-25T08:18:37.059Z,14.32
2023-03-25T08:21:09.694Z,15.48
2023-03-25T08:23:39.113Z,11.68
2023-03-25T08:26:08.060Z,13.20
2023-03-25T08:28:37.052Z,17.45
2023-03-25T08:31:09.870Z,18.95
2023-03-25T08:33:41.849Z,14.38
2023-03-25T08:36:15.026Z,19.52
2023-03-25T08:38:44.020Z,12.18
2023-03-25T08:41:12.796Z,14.40
2023-03-25T08:43:43.545Z,12.27
2023-03-25T08:46:14.345Z,15.30
2023-03-25T08:48:45.060Z,14.23
2023-03-25T08:51:13.995Z,16.42
2023-03-25T08:53:42.759Z,21.02
2023-03-25T08:56:12.400Z,18.30
2023-03-25T08:58:41.696Z,12.25
2023-03-25T09:01:10.698Z,18.33
2023-03-25T09:03:39.644Z,21.98
2023-03-25T09:06:10.071Z,23.05
2023-03-25T09:08:39.122Z,16.60
2023-03-25T09:11:08.259Z,15.27
2023-03-25T09:13:37.307Z,29.55
2023-03-25T09:16:06.736Z,16.48
2023-03-25T09:18:37.725Z,23.88
2023-03-25T09:21:07.155Z,15.43
2023-03-25T09:23:36.225Z,27.77
2023-03-25T09:26:06.214Z,26.00
2023-03-25T09:28:35.274Z,20.83
2023-03-25T09:31:04.004Z,24.38
2023-03-25T09:33:33.328Z,24.80
2023-03-25T09:36:03.144Z,23.27
2023-03-25T09:38:32.070Z,16.40
2023-03-25T09:41:06.560Z,23.20
2023-03-25T09:44:04.140Z,28.17
2023-03-25T09:46:34.048Z,24.08
2023-03-25T09:49:03.161Z,23.40
2023-03-25T09:51:37.624Z,23.88
2023-03-25T09:54:28.747Z,36.03
2023-03-25T09:57:03.664Z,32.03
2023-03-25T09:59:50.064Z,28.13
2023-03-25T10:02:49.689Z,34.90
2023-03-25T10:05:19.840Z,31.00
2023-03-25T10:08:14.454Z,26.83
2023-03-25T10:11:09.135Z,20.73
2023-03-25T10:13:38.111Z,24.67
2023-03-25T10:16:27.174Z,21.33
2023-03-25T10:19:52.127Z,27.75
2023-03-25T10:22:33.731Z,20.55
2023-03-25T10:25:06.567Z,25.08
2023-03-25T10:27:45.726Z,24.83
2023-03-25T10:30:16.789Z,25.20
2023-03-25T10:32:50.760Z,25.17
2023-03-25T10:35:44.335Z,32.88
2023-03-25T10:38:21.647Z,22.75
2023-03-25T10:40:54.223Z,30.42
2023-03-25T10:46:28.766Z,38.13
2023-03-25T10:48:57.867Z,31.15
2023-03-25T10:51:37.195Z,40.45
2023-03-25T10:54:06.493Z,34.75
2023-03-25T10:56:39.483Z,26.65
2023-03-25T10:59:26.815Z,32.20
2023-03-25T11:01:57.182Z,46.40
2023-03-25T11:04:37.929Z,30.50
2023-03-25T11:07:19.092Z,32.15
2023-03-25T11:09:48.361Z,29.50
2023-03-25T11:12:30.160Z,32.30
2023-03-25T11:15:07.554Z,30.63
2023-03-25T11:17:36.842Z,34.75
2023-03-25T11:20:18.571Z,34.75
2023-03-25T11:22:52.330Z,36.70
2023-03-25T11:25:32.513Z,36.05
2023-03-25T11:28:06.445Z,29.67
2023-03-25T11:30:35.398Z,35.40
2023-03-25T11:33:15.603Z,28.30
2023-03-25T11:35:47.618Z,36.20
2023-03-25T11:38:30.193Z,25.73
2023-03-25T11:43:37.724Z,31.17
2023-03-25T11:46:18.309Z,35.42
2023-03-25T11:48:48.238Z,30.48
2023-03-25T11:51:23.634Z,29.15
2023-03-25T11:54:06.608Z,44.05
2023-03-25T11:56:43.936Z,29.48
2023-03-25T11:59:39.053Z,25.52
2023-03-25T12:02:30.850Z,26.55
2023-03-25T12:05:13.368Z,28.98
2023-03-25T12:07:48.312Z,27.50
2023-03-25T12:10:49.301Z,29.60
2023-03-25T12:13:56.778Z,21.65
2023-03-25T12:16:45.292Z,29.77
2023-03-25T12:19:27.229Z,26.85
2023-03-25T12:22:26.971Z,49.67
2023-03-25T12:25:21.987Z,30.63
2023-03-25T12:28:09.757Z,31.23
2023-03-25T12:30:47.665Z,20.95
2023-03-25T12:33:48.988Z,28.85
2023-03-25T12:36:21.113Z,23.98
2023-03-25T12:39:39.441Z,29.08
2023-03-25T12:42:34.490Z,43.38
2023-03-25T12:45:33.522Z,42.78
2023-03-25T12:48:32.363Z,57.58
2023-03-25T12:51:01.628Z,35.28
2023-03-25T12:53:47.751Z,41.25
2023-03-25T12:56:33.656Z,48.05
2023-03-25T12:59:21.141Z,52.03
2023-03-25T13:02:05.175Z,59.05
2023-03-25T13:04:42.858Z,63.45
2023-03-25T13:07:17.722Z,60.42
2023-03-25T13:10:18.055Z,59.83
2023-03-25T13:12:59.709Z,63.25
2023-03-25T13:15:44.185Z,66.47
2023-03-25T13:19:06.545Z,74.00
2023-03-25T13:21:41.532Z,105.28
2023-03-25T13:24:19.481Z,77.47
2023-03-25T13:26:51.129Z,71.10
2023-03-25T13:29:46.883Z,70.20
2023-03-25T13:32:24.564Z,72.07
2023-03-25T13:35:08.207Z,88.32
2023-03-25T13:37:47.792Z,79.93
2023-03-25T13:40:28.776Z,87.45
2023-03-25T13:43:04.682Z,61.88
2023-03-25T13:45:57.798Z,71.18
2023-03-25T13:51:04.303Z,63.00
2023-03-25T13:53:48.910Z,65.20
2023-03-25T13:57:03.331Z,62.30
2023-03-25T13:59:57.594Z,55.70
2023-03-25T14:02:52.548Z,62.53
2023-03-25T14:06:22.986Z,63.10
2023-03-25T14:09:25.483Z,59.20
2023-03-25T14:12:10.354Z,61.53
2023-03-25T14:14:50.249Z,62.15
2023-03-25T14:19:56.485Z,68.03
2023-03-25T14:25:02.148Z,80.95
2023-03-25T14:27:36.546Z,74.53
2023-03-25T14:30:23.076Z,70.22
2023-03-25T14:32:55.346Z,75.78
2023-03-25T14:35:36.766Z,91.13
2023-03-25T14:38:08.828Z,96.75
2023-03-25T14:40:54.774Z,85.50
2023-03-25T14:43:33.996Z,60.63
2023-03-25T14:46:14.050Z,52.42
2023-03-25T14:49:06.771Z,43.95
2023-03-25T14:51:42.482Z,32.45
2023-03-25T14:54:36.874Z,30.98
2023-03-25T14:57:30.874Z,27.05
2023-03-25T15:00:18.294Z,23.20
2023-03-25T15:02:54.131Z,20.27
2023-03-25T15:05:28.596Z,17.17
2023-03-25T15:08:12.691Z,16.58
2023-03-25T15:11:04.273Z,17.25
2023-03-25T15:13:56.229Z,15.82
2023-03-25T15:16:49.196Z,16.17
2023-03-25T15:19:23.817Z,13.23
2023-03-25T15:21:59.288Z,16.00
2023-03-25T15:24:34.355Z,16.27
2023-03-25T15:27:32.362Z,15.55
2023-03-25T15:30:26.036Z,14.38
2023-03-25T15:33:31.890Z,18.08
2023-03-25T15:36:20.905Z,19.27
2023-03-25T15:39:22.103Z,20.50
2023-03-25T15:42:18.970Z,13.82
2023-03-25T15:45:02.855Z,17.73
2023-03-25T15:47:55.524Z,18.15
2023-03-25T15:50:54.221Z,12.48
2023-03-25T15:53:42.802Z,23.50
2023-03-25T15:56:15.673Z,23.48
2023-03-25T15:58:56.567Z,21.48
2023-03-25T16:01:32.223Z,21.10
2023-03-25T16:04:41.676Z,14.02
2023-03-25T16:07:16.290Z,15.45
2023-03-25T16:09:50.063Z,16.98
2023-03-25T16:12:25.083Z,19.20
2023-03-25T16:14:54.528Z,25.27
2023-03-25T16:17:32.115Z,17.73
2023-03-25T16:20:02.666Z,14.90
2023-03-25T16:22:34.400Z,18.27
2023-03-25T16:25:15.210Z,21.63
2023-03-25T16:27:53.148Z,13.98
2023-03-25T16:30:38.804Z,20.92
2023-03-25T16:33:14.658Z,18.33
2023-03-25T16:35:50.753Z,19.33
2023-03-25T16:38:26.300Z,19.63
2023-03-25T16:41:14.816Z,27.10
2023-03-25T16:43:44.379Z,17.27
2023-03-25T16:46:16.822Z,21.35
2023-03-25T16:51:33.090Z,40.60
2023-03-25T16:54:02.327Z,18.80
2023-03-25T16:56:37.624Z,18.92
2023-03-25T16:59:09.657Z,22.73
2023-03-25T17:01:43.369Z,25.17
2023-03-25T17:04:19.572Z,29.17
2023-03-25T17:06:55.656Z,27.95
2023-03-25T17:09:40.902Z,36.60
2023-03-25T17:12:21.502Z,20.92
2023-03-25T17:14:52.692Z,18.58
2023-03-25T17:17:24.453Z,22.42
2023-03-25T17:19:54.036Z,22.07
2023-03-25T17:22:29.820Z,19.25
2023-03-25T17:25:00.612Z,21.00
2023-03-25T17:27:37.072Z,25.33
2023-03-25T17:30:30.726Z,23.58
2023-03-25T17:33:11.592Z,33.72
2023-03-25T17:35:42.802Z,26.52
2023-03-25T17:38:29.969Z,44.78
2023-03-25T17:41:01.249Z,20.58
2023-03-25T17:43:33.534Z,18.58
2023-03-25T17:46:03.970Z,25.00
2023-03-25T17:48:33.016Z,29.52
2023-03-25T17:51:02.305Z,29.58
2023-03-25T17:53:31.845Z,48.40
2023-03-25T17:56:04.239Z,48.00
2023-03-25T18:01:02.377Z,49.78
2023-03-25T18:03:33.681Z,44.53
2023-03-25T18:06:02.599Z,46.85
2023-03-25T18:08:31.851Z,44.75
2023-03-25T18:11:01.020Z,46.55
2023-03-25T18:13:29.910Z,44.03
2023-03-25T18:15:59.243Z,37.53
2023-03-25T18:18:28.319Z,40.90
2023-03-25T18:20:57.326Z,32.92
2023-03-25T18:23:26.131Z,24.58
2023-03-25T18:25:55.241Z,23.75
2023-03-25T18:28:25.815Z,28.60
2023-03-25T18:30:56.348Z,38.10
2023-03-25T18:33:25.541Z,36.63
2023-03-25T18:35:54.512Z,39.10
2023-03-25T18:38:25.805Z,37.38
2023-03-25T18:40:56.873Z,36.03
2023-03-25T18:43:25.914Z,40.83
2023-03-25T18:45:55.078Z,43.42
2023-03-25T18:48:24.420Z,51.95
2023-03-25T18:50:57.714Z,46.08
2023-03-25T18:53:29.270Z,45.67
2023-03-25T18:56:01.755Z,44.13
2023-03-25T18:58:33.828Z,52.65
2023-03-25T19:01:05.025Z,48.10
2023-03-25T19:03:40.432Z,46.20
2023-03-25T19:06:16.075Z,52.83
2023-03-25T19:08:46.455Z,50.38
2023-03-25T19:11:21.614Z,55.08
2023-03-25T19:13:52.394Z,63.78
2023-03-25T19:16:21.978Z,62.17
2023-03-25T19:18:50.776Z,62.15
2023-03-25T19:21:20.740Z,54.88
2023-03-25T19:23:49.598Z,60.75
2023-03-25T19:26:18.587Z,76.38
2023-03-25T19:28:47.269Z,65.88
2023-03-25T19:31:17.387Z,67.00
2023-03-25T19:33:46.561Z,62.22
2023-03-25T19:36:17.634Z,64.57
2023-03-25T19:38:46.961Z,66.57
2023-03-25T19:41:17.276Z,72.10
2023-03-25T19:43:46.803Z,60.15
2023-03-25T19:46:15.824Z,59.28
2023-03-25T19:48:44.730Z,75.15
2023-03-25T19:51:13.653Z,71.50
2023-03-25T19:53:42.646Z,61.17
2023-03-25T19:56:14.792Z,64.15
2023-03-25T19:58:43.763Z,61.20
2023-03-25T20:01:13.095Z,49.63
2023-03-25T20:03:43.025Z,52.28
2023-03-25T20:06:11.983Z,65.53
2023-03-25T20:08:41.183Z,59.05
2023-03-25T20:11:12.827Z,63.17
2023-03-25T20:13:41.864Z,59.25
2023-03-25T20:16:10.899Z,67.05
2023-03-25T20:18:42.188Z,71.57
2023-03-25T20:21:12.694Z,68.72
2023-03-25T20:23:41.616Z,76.78
2023-03-25T20:26:10.443Z,99.65
2023-03-25T20:28:41.671Z,86.70
2023-03-25T20:31:22.655Z,95.05
2023-03-25T20:33:52.306Z,87.18
2023-03-25T20:36:22.497Z,87.72
2023-03-25T20:38:57.722Z,69.28
2023-03-25T20:41:27.747Z,69.13
2023-03-25T20:43:56.657Z,54.35
2023-03-25T20:46:29.173Z,59.25
2023-03-25T20:51:27.573Z,44.72
2023-03-25T20:53:57.868Z,46.60
2023-03-25T20:56:27.109Z,54.05
2023-03-25T20:58:55.932Z,52.15
2023-03-25T21:01:24.996Z,45.90
2023-03-25T21:03:54.326Z,53.78
2023-03-25T21:06:26.671Z,46.67
2023-03-25T21:08:59.558Z,42.55
2023-03-25T21:11:32.392Z,46.80
2023-03-25T21:14:01.364Z,40.97
2023-03-25T21:16:30.248Z,39.35
2023-03-25T21:19:02.702Z,48.63
2023-03-25T21:24:00.960Z,57.05
2023-03-25T21:26:29.840Z,55.78
2023-03-25T21:29:00.707Z,54.83
2023-03-25T21:31:30.303Z,53.50
2023-03-25T21:33:59.375Z,61.85
2023-03-25T21:36:30.717Z,62.20
2023-03-25T21:39:01.687Z,62.50
2023-03-25T21:41:31.507Z,59.63
2023-03-25T21:44:00.238Z,70.65
2023-03-25T21:46:29.409Z,59.75
2023-03-25T21:49:02.086Z,63.85
2023-03-25T21:51:33.226Z,64.10
2023-03-25T21:54:02.372Z,51.08
2023-03-25T21:56:35.595Z,55.10
2023-03-25T21:59:05.519Z,48.50
2023-03-25T22:01:34.483Z,47.85
2023-03-25T22:04:03.893Z,44.60
2023-03-25T22:06:35.981Z,42.00
2023-03-25T22:09:08.948Z,53.55
2023-03-25T22:11:41.491Z,45.70
2023-03-25T22:16:39.513Z,50.95
2023-03-25T22:19:09.553Z,72.03
2023-03-25T22:21:38.425Z,83.13
2023-03-25T22:24:09.257Z,69.82
2023-03-25T22:26:43.285Z,70.50
2023-03-25T22:29:12.411Z,75.20
2023-03-25T22:31:41.928Z,72.72
2023-03-25T22:34:16.133Z,73.57
2023-03-25T22:36:50.998Z,89.15
2023-03-25T22:39:21.938Z,94.18
2023-03-25T22:41:50.907Z,92.57
2023-03-25T22:44:22.255Z,85.40
2023-03-25T22:46:52.356Z,96.30
2023-03-25T22:49:21.547Z,99.78
2023-03-25T22:51:50.485Z,106.15
2023-03-25T22:54:19.296Z,104.70
2023-03-25T22:56:48.399Z,102.10
2023-03-25T22:59:17.249Z,110.50
2023-03-25T23:01:46.297Z,106.82
2023-03-25T23:04:15.264Z,133.40
2023-03-25T23:06:47.048Z,121.63
2023-03-25T23:09:42.223Z,131.65
2023-03-25T23:12:13.526Z,134.75
2023-03-25T23:14:48.583Z,128.82
2023-03-25T23:17:17.555Z,126.95
2023-03-25T23:19:46.998Z,138.00
2023-03-25T23:22:18.269Z,157.02
2023-03-25T23:24:47.161Z,182.85
2023-03-25T23:27:16.259Z,179.35
2023-03-25T23:29:46.031Z,183.55
2023-03-25T23:32:15.532Z,186.65
2023-03-25T23:34:44.469Z,189.18
2023-03-25T23:37:13.285Z,178.25
2023-03-25T23:39:42.993Z,165.50
2023-03-25T23:42:11.687Z,151.73
2023-03-25T23:44:40.612Z,139.98
2023-03-25T23:47:09.354Z,115.35
2023-03-25T23:49:39.275Z,116.97
2023-03-25T23:52:12.141Z,120.18
2023-03-25T23:54:41.591Z,131.73
2023-03-25T23:57:10.558Z,124.28
2023-03-25T23:59:39.615Z,135.00
